Time;durP1;ratioP1;P1;durP2;ratioP2;P2;SDS_P1;SDS_P2;PMS_P1;PMS_P2;Temp;Humidity;BMP_temperature;BMP_pressure;BME280_temperature;BME280_humidity;BME280_pressure;Samples;Min_cycle;Max_cycle;Signal;HPM_P1;HPM_P2
2021/01/01 00:00:50;;;;;;;22.80;19.17;;;4.10;99.90;;;;;;5067528;28;20198;-93
2021/01/01 00:03:16;;;;;;;18.67;16.77;;;4.00;99.90;;;;;;5088361;28;20211;-92
2021/01/01 00:05:45;;;;;;;19.50;16.80;;;4.10;99.90;;;;;;5088920;28;20203;-92
2021/01/01 00:08:11;;;;;;;18.50;16.60;;;4.20;99.90;;;;;;5055780;28;20187;-92
2021/01/01 00:10:37;;;;;;;17.50;15.57;;;4.30;99.50;;;;;;5058389;28;20213;-92
2021/01/01 00:13:03;;;;;;;18.83;16.83;;;4.30;99.30;;;;;;5088757;28;20195;-93
2021/01/01 00:15:29;;;;;;;21.17;17.47;;;4.30;98.70;;;;;;5041975;28;20191;-93
2021/01/01 00:17:55;;;;;;;19.60;17.50;;;4.40;98.50;;;;;;5071836;28;20198;-93
2021/01/01 00:20:21;;;;;;;19.93;17.97;;;4.50;98.00;;;;;;5071796;28;20250;-92
2021/01/01 00:22:47;;;;;;;19.80;16.63;;;4.40;97.90;;;;;;5056109;28;20272;-93
2021/01/01 00:25:13;;;;;;;22.33;19.97;;;4.40;98.40;;;;;;5058438;28;20199;-92
2021/01/01 00:27:41;;;;;;;21.07;18.77;;;4.30;98.70;;;;;;5056699;28;20213;-92
2021/01/01 00:30:19;;;;;;;21.70;19.43;;;4.40;98.80;;;;;;5069642;28;20226;-92
2021/01/01 00:32:48;;;;;;;23.93;20.40;;;4.50;98.40;;;;;;5069319;28;20201;-93
2021/01/01 00:35:17;;;;;;;21.40;19.10;;;4.50;98.00;;;;;;5066288;28;20530;-91
2021/01/01 00:37:46;;;;;;;23.10;20.60;;;4.50;97.90;;;;;;5050876;28;20278;-92
2021/01/01 00:40:11;;;;;;;22.30;19.90;;;4.50;98.30;;;;;;5071372;28;20226;-93
2021/01/01 00:42:38;;;;;;;23.37;20.90;;;4.50;97.90;;;;;;5054987;28;20193;-93
2021/01/01 00:45:05;;;;;;;22.23;19.93;;;4.50;98.90;;;;;;5087582;28;20195;-92
2021/01/01 00:47:33;;;;;;;21.43;19.03;;;4.30;99.10;;;;;;5072771;28;20194;-92
2021/01/01 00:49:59;;;;;;;21.03;18.83;;;4.50;99.10;;;;;;5070379;28;20238;-91
2021/01/01 00:52:25;;;;;;;19.27;17.23;;;4.60;98.10;;;;;;5072458;28;20213;-92
2021/01/01 00:54:51;;;;;;;19.37;17.27;;;4.70;97.20;;;;;;5071880;28;20198;-91
2021/01/01 00:57:22;;;;;;;18.70;16.80;;;4.60;97.20;;;;;;5004029;28;20186;-90
2021/01/01 00:59:51;;;;;;;19.93;17.80;;;4.40;97.90;;;;;;5055413;28;20259;-90
2021/01/01 01:02:17;;;;;;;20.03;17.93;;;4.40;98.20;;;;;;5051468;28;20658;-91
2021/01/01 01:04:42;;;;;;;19.27;17.17;;;4.30;98.90;;;;;;5067960;28;20215;-92
2021/01/01 01:07:08;;;;;;;19.60;17.57;;;4.40;98.70;;;;;;5068341;28;20198;-90
2021/01/01 01:09:34;;;;;;;19.37;17.37;;;4.50;97.80;;;;;;5067677;28;20266;-90
2021/01/01 01:12:03;;;;;;;20.67;18.47;;;4.40;97.60;;;;;;5101583;28;20290;-90
2021/01/01 01:14:29;;;;;;;22.40;17.67;;;4.20;99.10;;;;;;5088969;28;20179;-90
2021/01/01 01:16:54;;;;;;;19.33;17.17;;;4.20;99.40;;;;;;5088150;28;20217;-91
2021/01/01 01:19:20;;;;;;;19.57;17.50;;;4.20;98.90;;;;;;5088715;28;20704;-90
2021/01/01 01:21:46;;;;;;;17.87;16.03;;;4.10;99.10;;;;;;5106523;28;20222;-90
2021/01/01 01:24:11;;;;;;;19.40;16.57;;;4.00;99.90;;;;;;5106620;28;20217;-90
2021/01/01 01:26:37;;;;;;;17.27;15.47;;;4.10;99.50;;;;;;5044309;28;20190;-90
2021/01/01 01:29:03;;;;;;;17.00;15.37;;;4.00;99.70;;;;;;5004119;28;20206;-91
2021/01/01 01:31:32;;;;;;;17.53;15.70;;;4.10;99.40;;;;;;5003852;28;20213;-91
2021/01/01 01:34:07;;;;;;;17.77;15.93;;;4.00;99.70;;;;;;5003735;28;20201;-91
2021/01/01 01:36:33;;;;;;;17.20;15.40;;;4.00;99.50;;;;;;5071655;28;20178;-90
2021/01/01 01:38:58;;;;;;;17.80;15.90;;;4.00;99.90;;;;;;5004084;28;20206;-90
2021/01/01 01:41:24;;;;;;;16.43;14.73;;;4.00;99.90;;;;;;5071729;28;20217;-90
2021/01/01 01:43:50;;;;;;;19.20;16.17;;;4.10;99.80;;;;;;5003642;28;20198;-92
2021/01/01 01:46:16;;;;;;;17.80;15.20;;;4.00;99.50;;;;;;5003693;28;20213;-91
2021/01/01 01:48:43;;;;;;;22.43;14.77;;;3.90;99.90;;;;;;5004426;28;20206;-91
2021/01/01 01:51:15;;;;;;;16.37;14.67;;;3.90;99.90;;;;;;5054210;28;20227;-91
2021/01/01 01:53:46;;;;;;;15.13;13.57;;;3.90;99.90;;;;;;5054181;28;20186;-91
2021/01/01 01:56:13;;;;;;;15.70;13.60;;;3.90;99.90;;;;;;5052105;28;20187;-89
2021/01/01 01:58:40;;;;;;;13.77;12.03;;;4.00;99.30;;;;;;5049492;28;20198;-90
2021/01/01 02:01:06;;;;;;;13.47;12.03;;;4.00;99.20;;;;;;4985239;28;20183;-90
2021/01/01 02:03:33;;;;;;;13.03;11.63;;;4.00;98.70;;;;;;5034146;28;20207;-90
2021/01/01 02:05:59;;;;;;;12.20;10.70;;;4.10;97.60;;;;;;5051270;28;20614;-90
2021/01/01 02:08:26;;;;;;;11.20;9.73;;;4.10;97.50;;;;;;5034065;28;20207;-90
2021/01/01 02:10:55;;;;;;;11.87;10.60;;;4.20;95.90;;;;;;5062805;28;20222;-90
2021/01/01 02:13:22;;;;;;;11.57;10.00;;;4.20;96.70;;;;;;5053674;28;20191;-90
2021/01/01 02:15:48;;;;;;;11.37;9.63;;;4.20;95.50;;;;;;5070813;28;20190;-92
2021/01/01 02:31:05;;;;;;;6.60;5.90;;;4.10;93.60;;;;;;5126827;28;20266;-91
2021/01/01 02:33:31;;;;;;;6.50;5.80;;;4.10;93.00;;;;;;5094302;28;20258;-90
2021/01/01 02:35:56;;;;;;;6.03;5.43;;;4.00;92.50;;;;;;5127526;28;20190;-90
2021/01/01 02:38:24;;;;;;;6.73;6.10;;;4.00;91.60;;;;;;5090924;28;20257;-91
2021/01/01 02:40:49;;;;;;;5.70;5.20;;;3.90;92.30;;;;;;5107079;28;20185;-90
2021/01/01 02:43:15;;;;;;;6.10;4.83;;;3.80;92.30;;;;;;5090288;28;20210;-90
2021/01/01 02:45:41;;;;;;;4.60;4.20;;;3.80;92.30;;;;;;5124433;28;20186;-90
2021/01/01 02:48:18;;;;;;;5.13;4.07;;;3.90;89.50;;;;;;5125387;28;20174;-90
2021/01/01 02:50:45;;;;;;;4.93;4.53;;;3.90;88.40;;;;;;5108151;28;20182;-90
2021/01/01 02:53:11;;;;;;;5.50;4.97;;;3.80;88.50;;;;;;5106660;28;20183;-90
2021/01/01 02:55:37;;;;;;;5.73;4.83;;;3.70;90.00;;;;;;5124307;28;20656;-90
2021/01/01 02:58:04;;;;;;;4.87;4.37;;;3.70;89.10;;;;;;5124334;28;20178;-90
2021/01/01 03:00:31;;;;;;;5.33;4.83;;;3.70;90.00;;;;;;5106830;28;20193;-90
2021/01/01 03:02:57;;;;;;;5.40;4.90;;;3.60;90.00;;;;;;5089889;28;20206;-90
2021/01/01 03:05:23;;;;;;;5.30;4.80;;;3.70;90.30;;;;;;5124285;28;20173;-90
2021/01/01 03:07:49;;;;;;;5.93;4.80;;;3.70;89.40;;;;;;5106861;28;20205;-90
2021/01/01 03:10:14;;;;;;;4.90;4.50;;;3.60;89.40;;;;;;5082753;28;20190;-90
2021/01/01 03:12:40;;;;;;;5.67;4.70;;;3.60;89.80;;;;;;5100033;28;20178;-90
2021/01/01 03:15:07;;;;;;;5.53;4.97;;;3.60;89.60;;;;;;5101813;28;20242;-89
2021/01/01 03:17:33;;;;;;;5.13;4.63;;;3.60;89.40;;;;;;5101377;28;20192;-91
2021/01/01 03:19:59;;;;;;;6.20;4.53;;;3.50;89.90;;;;;;5082877;28;20199;-91
2021/01/01 03:22:24;;;;;;;5.47;4.77;;;3.60;89.90;;;;;;5083580;28;20193;-90
2021/01/01 03:24:50;;;;;;;5.87;5.27;;;3.50;91.30;;;;;;5083987;28;20667;-90
2021/01/01 03:27:16;;;;;;;5.90;5.27;;;3.50;90.90;;;;;;5083897;28;20167;-90
2021/01/01 03:29:42;;;;;;;5.23;4.73;;;3.50;90.40;;;;;;5101565;28;20233;-91
2021/01/01 03:32:07;;;;;;;5.87;4.53;;;3.50;90.40;;;;;;5083302;28;20254;-90
2021/01/01 03:34:33;;;;;;;4.50;4.10;;;3.50;90.60;;;;;;5101507;28;20195;-90
2021/01/01 03:36:59;;;;;;;6.60;4.97;;;3.50;90.30;;;;;;5101464;28;20634;-90
2021/01/01 03:39:24;;;;;;;5.97;5.37;;;3.40;90.60;;;;;;5066031;28;20213;-90
2021/01/01 03:41:50;;;;;;;4.83;4.03;;;3.40;89.90;;;;;;5082714;28;20191;-90
2021/01/01 03:44:16;;;;;;;4.73;4.10;;;3.40;90.00;;;;;;5082802;28;20221;-91
2021/01/01 03:46:41;;;;;;;5.03;4.53;;;3.40;90.00;;;;;;5101349;28;20638;-90
2021/01/01 03:49:07;;;;;;;4.60;4.10;;;3.40;89.70;;;;;;5083678;28;20214;-90
2021/01/01 03:51:33;;;;;;;4.00;3.60;;;3.50;89.60;;;;;;5120463;28;20704;-90
2021/01/01 03:53:58;;;;;;;4.50;3.37;;;3.50;89.20;;;;;;5121842;28;20186;-91
2021/01/01 03:56:25;;;;;;;4.10;3.70;;;3.40;89.70;;;;;;5086509;28;20191;-91
2021/01/01 03:58:51;;;;;;;4.27;3.87;;;3.40;89.60;;;;;;5103173;28;20202;-91
2021/01/01 04:01:17;;;;;;;4.00;3.60;;;3.50;88.50;;;;;;5102922;28;20174;-91
2021/01/01 04:03:43;;;;;;;4.33;3.93;;;3.40;88.80;;;;;;5085238;28;20218;-91
2021/01/01 04:06:09;;;;;;;5.17;4.43;;;3.40;88.20;;;;;;5082783;28;20191;-91
2021/01/01 04:08:35;;;;;;;5.80;3.33;;;3.30;89.60;;;;;;5083337;28;20191;-91
2021/01/01 04:11:01;;;;;;;4.70;4.23;;;3.30;89.70;;;;;;5105161;28;20186;-91
2021/01/01 04:13:26;;;;;;;4.17;3.77;;;3.20;90.50;;;;;;5086224;28;20289;-91
2021/01/01 04:15:52;;;;;;;4.27;3.83;;;3.20;90.20;;;;;;5085982;28;20194;-90
2021/01/01 04:18:18;;;;;;;3.70;3.40;;;3.20;90.30;;;;;;5085911;28;20673;-91
2021/01/01 04:20:43;;;;;;;4.00;3.60;;;3.20;90.80;;;;;;5087161;28;20194;-90
2021/01/01 04:23:09;;;;;;;4.07;3.67;;;3.20;90.30;;;;;;5086602;28;20215;-91
2021/01/01 04:25:35;;;;;;;3.40;3.00;;;3.20;90.50;;;;;;5086432;28;20191;-91
2021/01/01 04:28:01;;;;;;;3.93;3.60;;;3.20;90.30;;;;;;5086596;28;20209;-91
2021/01/01 04:30:27;;;;;;;4.23;3.83;;;3.30;89.50;;;;;;5070520;28;20209;-91
2021/01/01 04:32:52;;;;;;;3.87;3.50;;;3.20;90.00;;;;;;5104320;28;20214;-91
2021/01/01 04:35:18;;;;;;;3.77;3.37;;;3.10;89.80;;;;;;5104372;28;20206;-90
2021/01/01 04:37:44;;;;;;;3.97;3.57;;;3.10;90.40;;;;;;5105909;28;20631;-90
2021/01/01 04:40:10;;;;;;;3.70;3.40;;;3.20;90.00;;;;;;5103175;28;20565;-90
2021/01/01 04:42:36;;;;;;;4.00;3.60;;;3.10;90.00;;;;;;5065123;28;20187;-89
2021/01/01 04:45:06;;;;;;;3.50;3.20;;;3.00;90.60;;;;;;5080905;28;20189;-89
2021/01/01 04:47:32;;;;;;;4.40;3.33;;;3.00;90.60;;;;;;5080595;28;20207;-90
2021/01/01 04:50:03;;;;;;;3.70;3.40;;;3.10;89.30;;;;;;5064841;28;20213;-90
2021/01/01 04:52:33;;;;;;;3.60;3.30;;;3.20;89.90;;;;;;5081160;28;20213;-89
2021/01/01 04:55:02;;;;;;;4.13;3.77;;;3.10;89.80;;;;;;5080280;28;20187;-89
2021/01/01 04:57:28;;;;;;;3.80;3.40;;;2.90;90.20;;;;;;5080536;28;20575;-89
2021/01/01 04:59:54;;;;;;;4.13;3.73;;;2.90;90.50;;;;;;5080306;28;20222;-90
2021/01/01 05:02:20;;;;;;;3.80;3.50;;;2.80;90.80;;;;;;5081093;28;20321;-90
2021/01/01 05:04:47;;;;;;;4.10;3.70;;;2.90;91.00;;;;;;5063498;28;20646;-90
2021/01/01 05:07:19;;;;;;;3.50;3.03;;;2.80;91.80;;;;;;5063590;28;20194;-89
2021/01/01 05:09:47;;;;;;;5.23;3.77;;;2.80;90.80;;;;;;5063698;28;20207;-89
2021/01/01 05:12:14;;;;;;;3.67;3.33;;;2.80;91.40;;;;;;5063752;28;20281;-90
2021/01/01 05:14:40;;;;;;;4.40;3.93;;;2.70;91.80;;;;;;5099092;28;20220;-90
2021/01/01 05:17:06;;;;;;;3.93;3.63;;;2.70;91.50;;;;;;5099821;28;20235;-90
2021/01/01 05:19:43;;;;;;;3.73;3.43;;;2.80;91.30;;;;;;5081425;28;20258;-90
2021/01/01 05:22:12;;;;;;;3.90;3.60;;;2.70;91.50;;;;;;5080476;28;20238;-90
2021/01/01 05:24:42;;;;;;;4.70;4.20;;;2.80;92.50;;;;;;5081438;28;20220;-89
2021/01/01 05:27:18;;;;;;;4.20;3.80;;;2.80;90.70;;;;;;5099389;28;20250;-91
2021/01/01 05:29:54;;;;;;;4.37;3.97;;;2.80;90.70;;;;;;5119575;28;20217;-90
2021/01/01 05:32:28;;;;;;;4.17;3.77;;;2.90;91.20;;;;;;5101860;28;20303;-90
2021/01/01 05:34:54;;;;;;;3.77;3.47;;;2.90;90.20;;;;;;5120126;28;20250;-90
2021/01/01 05:37:31;;;;;;;4.60;4.00;;;2.80;90.60;;;;;;5118054;28;20190;-90
2021/01/01 05:40:00;;;;;;;3.83;3.47;;;2.70;91.70;;;;;;5101261;28;20234;-90
2021/01/01 05:42:25;;;;;;;3.63;3.33;;;2.70;91.40;;;;;;5119713;28;20182;-90
2021/01/01 05:44:51;;;;;;;4.10;3.70;;;2.70;91.80;;;;;;5101447;28;20202;-90
2021/01/01 05:47:17;;;;;;;3.83;3.43;;;2.80;90.50;;;;;;5119466;28;20188;-89
2021/01/01 05:49:42;;;;;;;3.80;3.50;;;2.80;90.90;;;;;;5100935;28;20205;-90
2021/01/01 05:52:12;;;;;;;4.37;3.97;;;2.70;90.80;;;;;;5100862;28;20727;-90
2021/01/01 05:54:43;;;;;;;5.17;3.47;;;2.80;91.40;;;;;;5119559;28;20652;-90
2021/01/01 05:57:10;;;;;;;4.20;3.80;;;2.80;91.30;;;;;;5119503;28;20257;-90
2021/01/01 05:59:41;;;;;;;4.23;3.67;;;2.80;90.10;;;;;;5100705;28;20202;-90
2021/01/01 06:02:09;;;;;;;4.27;3.40;;;3.00;89.70;;;;;;5119658;28;20261;-90
2021/01/01 06:04:36;;;;;;;4.17;3.73;;;2.80;89.60;;;;;;5119833;28;20202;-90
2021/01/01 06:07:06;;;;;;;5.07;4.00;;;2.70;90.90;;;;;;5100749;28;20179;-90
2021/01/01 06:09:33;;;;;;;4.00;3.60;;;2.60;91.10;;;;;;5100934;28;20235;-90
2021/01/01 06:12:02;;;;;;;4.77;4.33;;;2.50;91.30;;;;;;5082728;28;20646;-90
2021/01/01 06:14:35;;;;;;;4.67;4.27;;;2.50;92.00;;;;;;5080556;28;20207;-90
2021/01/01 06:17:10;;;;;;;4.60;4.13;;;2.50;92.50;;;;;;5099204;28;20168;-90
2021/01/01 06:19:57;;;;;;;4.17;3.77;;;2.50;92.30;;;;;;5080393;28;20287;-91
2021/01/01 06:22:24;;;;;;;4.67;4.17;;;2.60;92.30;;;;;;5080985;28;20599;-88
2021/01/01 06:24:55;;;;;;;5.23;4.73;;;2.50;93.20;;;;;;5098879;28;20669;-90
2021/01/01 06:27:23;;;;;;;5.50;5.00;;;2.50;93.30;;;;;;5098966;28;20198;-90
2021/01/01 06:29:58;;;;;;;5.50;5.00;;;2.50;93.00;;;;;;5080417;28;20795;-90
2021/01/01 06:32:24;;;;;;;4.60;4.17;;;2.50;93.20;;;;;;5101059;28;20485;-90
2021/01/01 06:34:52;;;;;;;5.93;5.20;;;2.50;93.30;;;;;;5101044;28;20182;-90
2021/01/01 06:37:38;;;;;;;6.97;5.53;;;2.40;93.40;;;;;;5119253;28;20270;-90
2021/01/01 06:40:20;;;;;;;5.73;5.13;;;2.50;92.70;;;;;;5101003;28;20330;-90
2021/01/01 06:43:00;;;;;;;5.97;5.37;;;2.50;93.00;;;;;;5101853;28;20182;-90
2021/01/01 06:45:40;;;;;;;5.63;5.03;;;2.60;92.80;;;;;;5121871;28;20170;-90
2021/01/01 06:48:12;;;;;;;7.13;5.90;;;2.60;92.30;;;;;;5122237;28;20177;-91
2021/01/01 06:50:43;;;;;;;6.60;5.90;;;2.60;92.60;;;;;;5102116;28;20182;-90
2021/01/01 06:53:14;;;;;;;6.90;5.87;;;2.60;92.30;;;;;;5101812;28;20178;-89
2021/01/01 06:55:42;;;;;;;6.73;5.47;;;2.50;92.60;;;;;;5120071;28;20306;-91
2021/01/01 06:58:08;;;;;;;6.60;5.90;;;2.50;93.20;;;;;;5085038;28;20185;-90
2021/01/01 07:00:49;;;;;;;6.13;5.37;;;2.50;92.50;;;;;;5098233;28;20189;-90
2021/01/01 07:03:30;;;;;;;6.77;5.70;;;2.50;92.60;;;;;;5119887;28;20201;-90
2021/01/01 07:06:11;;;;;;;6.30;5.67;;;2.60;91.90;;;;;;5120022;28;20186;-90
2021/01/01 07:08:42;;;;;;;7.00;5.53;;;2.70;91.40;;;;;;5101100;28;20735;-91
2021/01/01 07:11:11;;;;;;;6.90;6.13;;;2.60;92.10;;;;;;5101866;28;20252;-90
2021/01/01 07:13:43;;;;;;;6.20;5.60;;;2.80;91.20;;;;;;5101376;28;20181;-91
2021/01/01 07:16:09;;;;;;;7.80;5.97;;;2.80;90.40;;;;;;5119831;28;20238;-90
2021/01/01 07:18:35;;;;;;;6.73;6.03;;;2.80;90.60;;;;;;5120261;28;20213;-91
2021/01/01 07:21:05;;;;;;;7.90;6.33;;;2.70;90.80;;;;;;5119689;28;20324;-91
2021/01/01 07:23:31;;;;;;;7.83;6.23;;;2.70;91.20;;;;;;5102644;28;20672;-91
2021/01/01 07:25:59;;;;;;;7.17;6.03;;;2.70;92.60;;;;;;5100736;28;20186;-91
2021/01/01 07:28:27;;;;;;;5.97;5.33;;;2.60;91.80;;;;;;5119577;28;20217;-90
2021/01/01 07:30:54;;;;;;;7.37;5.70;;;2.70;92.40;;;;;;5100481;28;20200;-91
2021/01/01 07:33:30;;;;;;;6.87;5.80;;;2.80;92.70;;;;;;5067218;28;20595;-92
2021/01/01 07:35:58;;;;;;;6.23;5.63;;;2.80;92.00;;;;;;5080462;28;20179;-92
2021/01/01 07:38:27;;;;;;;7.17;6.47;;;2.80;92.20;;;;;;5063653;28;20224;-92
2021/01/01 07:40:53;;;;;;;6.70;6.00;;;2.70;91.10;;;;;;5064322;28;20194;-92
2021/01/01 07:43:20;;;;;;;7.83;6.40;;;2.80;90.90;;;;;;5080715;28;20704;-91
2021/01/01 07:45:49;;;;;;;8.33;6.13;;;2.60;91.40;;;;;;5084506;28;20190;-91
2021/01/01 07:48:15;;;;;;;6.80;6.10;;;2.70;93.00;;;;;;5085347;28;20226;-91
2021/01/01 07:50:41;;;;;;;7.13;6.43;;;2.70;91.80;;;;;;5104811;28;20182;-91
2021/01/01 07:53:09;;;;;;;9.13;7.10;;;2.60;92.30;;;;;;5085219;28;20187;-91
2021/01/01 07:55:36;;;;;;;9.43;7.73;;;2.60;92.30;;;;;;5068543;28;20187;-90
2021/01/01 07:58:13;;;;;;;8.97;7.57;;;2.60;92.60;;;;;;5084667;28;20179;-91
2021/01/01 08:00:44;;;;;;;9.57;8.37;;;2.50;93.40;;;;;;5083993;28;20190;-91
2021/01/01 08:03:10;;;;;;;9.20;7.93;;;2.60;92.70;;;;;;5087943;28;20198;-93
2021/01/01 08:05:36;;;;;;;9.67;7.70;;;2.60;93.30;;;;;;5110713;28;20175;-92
2021/01/01 08:08:17;;;;;;;9.57;8.00;;;2.60;92.90;;;;;;5113209;28;20178;-91
2021/01/01 08:10:47;;;;;;;9.60;7.60;;;2.60;93.20;;;;;;5103640;28;20155;-90
2021/01/01 08:13:19;;;;;;;9.70;8.70;;;2.50;93.60;;;;;;5106428;28;20265;-90
2021/01/01 08:15:46;;;;;;;8.93;7.87;;;2.60;94.30;;;;;;5106686;28;20193;-91
2021/01/01 08:18:18;;;;;;;10.27;8.30;;;2.70;93.10;;;;;;5107037;28;20193;-90
2021/01/01 08:20:49;;;;;;;10.27;8.53;;;2.80;92.90;;;;;;5106948;28;20609;-91
2021/01/01 08:23:19;;;;;;;9.27;8.37;;;2.60;93.30;;;;;;5109380;28;20243;-90
2021/01/01 08:25:49;;;;;;;9.43;7.70;;;2.70;93.30;;;;;;5126564;28;20645;-90
2021/01/01 08:28:19;;;;;;;8.90;7.70;;;2.70;93.20;;;;;;5099112;28;20179;-91
2021/01/01 08:30:51;;;;;;;9.57;8.57;;;2.70;93.60;;;;;;5104977;28;20205;-92
2021/01/01 08:33:20;;;;;;;9.70;8.10;;;2.70;93.50;;;;;;5105166;28;20220;-92
2021/01/01 08:35:46;;;;;;;9.53;7.90;;;2.70;92.80;;;;;;5103701;28;20338;-92
2021/01/01 08:38:19;;;;;;;9.33;7.60;;;2.70;92.80;;;;;;5107067;28;20174;-90
2021/01/01 08:40:53;;;;;;;9.87;8.20;;;2.80;92.30;;;;;;5125646;28;20169;-91
2021/01/01 08:43:19;;;;;;;9.97;8.17;;;2.90;91.80;;;;;;5123775;28;20271;-91
2021/01/01 08:45:45;;;;;;;10.27;8.53;;;2.90;92.20;;;;;;5125552;28;20591;-91
2021/01/01 08:48:11;;;;;;;9.73;7.97;;;2.90;92.00;;;;;;5125989;28;20170;-91
2021/01/01 08:50:47;;;;;;;12.70;9.00;;;2.80;92.00;;;;;;5126361;28;20308;-91
2021/01/01 08:53:13;;;;;;;9.80;8.70;;;2.80;92.50;;;;;;5125776;28;20182;-91
2021/01/01 08:55:39;;;;;;;10.60;8.30;;;2.80;93.00;;;;;;5107416;28;20186;-91
2021/01/01 08:58:10;;;;;;;10.63;9.47;;;2.80;93.40;;;;;;5107477;28;20236;-92
2021/01/01 09:00:38;;;;;;;11.50;9.13;;;2.80;93.80;;;;;;5106668;28;20218;-92
2021/01/01 09:03:04;;;;;;;10.47;9.20;;;2.90;92.90;;;;;;5122706;28;20235;-91
2021/01/01 09:05:30;;;;;;;13.00;10.13;;;2.90;93.80;;;;;;5124658;28;20175;-92
2021/01/01 09:08:06;;;;;;;12.13;9.73;;;2.90;93.50;;;;;;5123355;28;20709;-91
2021/01/01 09:10:32;;;;;;;12.43;10.03;;;3.00;93.10;;;;;;5105265;28;20178;-91
2021/01/01 09:12:58;;;;;;;12.23;9.87;;;2.90;93.60;;;;;;5070754;28;20232;-91
2021/01/01 09:15:28;;;;;;;12.00;10.30;;;3.00;93.30;;;;;;5104716;28;20183;-92
2021/01/01 09:18:06;;;;;;;12.90;10.23;;;2.90;92.90;;;;;;5084345;28;20174;-91
2021/01/01 09:20:32;;;;;;;13.40;9.83;;;2.90;93.60;;;;;;5105071;28;20688;-91
2021/01/01 09:23:02;;;;;;;12.47;10.63;;;3.00;93.90;;;;;;5122021;28;20182;-92
2021/01/01 09:25:30;;;;;;;11.20;9.57;;;3.10;93.00;;;;;;5087973;28;20201;-92
2021/01/01 09:27:57;;;;;;;12.00;10.03;;;3.10;92.40;;;;;;5105314;28;20179;-92
2021/01/01 09:30:31;;;;;;;13.40;11.43;;;3.20;92.60;;;;;;5090645;28;20216;-91
2021/01/01 09:32:58;;;;;;;11.93;10.10;;;3.30;91.10;;;;;;5107415;28;20212;-93
2021/01/01 09:35:25;;;;;;;13.50;10.63;;;3.40;90.30;;;;;;5108081;28;20221;-92
2021/01/01 09:37:53;;;;;;;13.57;10.90;;;3.30;90.60;;;;;;5108012;28;20174;-91
2021/01/01 09:40:23;;;;;;;12.20;10.30;;;3.20;91.40;;;;;;5108466;28;20202;-91
2021/01/01 09:42:49;;;;;;;12.90;10.43;;;3.20;91.90;;;;;;5108235;28;20163;-92
2021/01/01 09:45:16;;;;;;;11.83;10.37;;;3.20;91.70;;;;;;5107248;28;20236;-92
2021/01/01 09:47:42;;;;;;;12.07;10.80;;;3.20;91.80;;;;;;5107606;28;20200;-91
2021/01/01 09:50:09;;;;;;;14.63;11.07;;;3.20;91.90;;;;;;5105982;28;20205;-91
2021/01/01 09:52:38;;;;;;;14.13;11.00;;;3.20;91.30;;;;;;5124990;28;20181;-93
2021/01/01 09:55:05;;;;;;;13.43;11.20;;;3.40;90.40;;;;;;5107849;28;20175;-91
2021/01/01 09:57:31;;;;;;;14.03;11.00;;;3.40;91.60;;;;;;5089786;28;20249;-92
2021/01/01 10:00:11;;;;;;;12.60;10.90;;;3.30;92.10;;;;;;5089792;28;20653;-91
2021/01/01 10:02:37;;;;;;;14.60;11.07;;;3.50;91.70;;;;;;5108153;28;20201;-91
2021/01/01 10:05:07;;;;;;;13.83;10.77;;;3.60;90.60;;;;;;5071535;28;20217;-92
2021/01/01 10:07:33;;;;;;;15.20;11.37;;;3.80;90.10;;;;;;5090402;28;20198;-91
2021/01/01 10:09:59;;;;;;;14.83;12.13;;;3.80;89.20;;;;;;5123767;28;20199;-91
2021/01/01 10:12:25;;;;;;;15.40;11.13;;;4.00;91.20;;;;;;5092569;28;20183;-89
2021/01/01 10:14:54;;;;;;;14.90;11.93;;;4.10;89.30;;;;;;5104024;28;20171;-90
2021/01/01 10:17:29;;;;;;;16.00;12.73;;;4.10;87.60;;;;;;5084984;28;20257;-91
2021/01/01 10:19:56;;;;;;;13.80;11.60;;;3.90;89.10;;;;;;5085834;28;20207;-91
2021/01/01 10:22:25;;;;;;;14.17;11.73;;;3.80;89.20;;;;;;5083583;28;20183;-91
2021/01/01 10:24:51;;;;;;;15.27;12.37;;;3.60;89.90;;;;;;5086248;28;20210;-91
2021/01/01 10:27:17;;;;;;;14.87;12.43;;;3.60;90.20;;;;;;5101707;28;20178;-92
2021/01/01 10:29:43;;;;;;;13.40;11.33;;;3.40;90.60;;;;;;5124722;28;20292;-90
2021/01/01 10:32:13;;;;;;;15.13;12.73;;;3.40;90.70;;;;;;5123494;28;20189;-91
2021/01/01 10:34:43;;;;;;;15.33;11.93;;;3.40;90.40;;;;;;5105285;28;20249;-91
2021/01/01 10:37:15;;;;;;;12.90;11.07;;;3.50;90.20;;;;;;5120703;28;20247;-90
2021/01/01 10:39:41;;;;;;;13.70;11.80;;;3.50;90.00;;;;;;5103366;28;20252;-90
2021/01/01 10:42:07;;;;;;;15.53;12.07;;;3.60;89.70;;;;;;5104023;28;20175;-91
2021/01/01 10:44:33;;;;;;;15.27;12.13;;;3.60;90.40;;;;;;5067325;28;20218;-91
2021/01/01 10:47:06;;;;;;;15.03;12.00;;;3.70;90.20;;;;;;5083610;28;20202;-91
2021/01/01 10:49:35;;;;;;;15.87;12.27;;;3.70;89.90;;;;;;5084697;28;20553;-90
2021/01/01 10:52:01;;;;;;;15.17;12.53;;;3.70;91.00;;;;;;5085404;28;20258;-90
2021/01/01 10:54:28;;;;;;;13.27;10.80;;;3.90;89.60;;;;;;5064799;28;20206;-90
2021/01/01 10:56:54;;;;;;;13.43;10.87;;;4.00;88.10;;;;;;5086297;28;20183;-90
2021/01/01 10:59:20;;;;;;;14.57;11.97;;;4.10;88.00;;;;;;5086343;28;20280;-90
2021/01/01 11:01:45;;;;;;;15.50;11.57;;;4.10;87.60;;;;;;5103255;28;20285;-91
2021/01/01 11:04:11;;;;;;;15.07;12.10;;;4.10;87.90;;;;;;5084572;28;20204;-91
2021/01/01 11:06:39;;;;;;;15.13;12.33;;;4.10;87.70;;;;;;5084194;28;20251;-90
2021/01/01 11:09:06;;;;;;;12.97;11.10;;;4.20;87.20;;;;;;5093503;28;20238;-91
2021/01/01 11:11:32;;;;;;;18.40;12.83;;;4.20;87.70;;;;;;5115903;28;20189;-91
2021/01/01 12:22:59;;;;;;;14.80;12.63;;;5.00;82.90;;;;;;5106378;28;20273;-93
2021/01/01 12:25:25;;;;;;;16.27;13.53;;;4.90;83.40;;;;;;5122924;28;20193;-92
2021/01/01 12:27:52;;;;;;;17.07;12.20;;;4.80;83.50;;;;;;5122588;28;20594;-91
2021/01/01 12:30:19;;;;;;;16.17;13.70;;;4.90;83.80;;;;;;5091838;28;20303;-91
2021/01/01 12:32:46;;;;;;;13.90;12.40;;;5.00;83.30;;;;;;5088348;28;20190;-91
2021/01/01 12:35:12;;;;;;;13.20;11.80;;;5.00;84.20;;;;;;5107470;28;20171;-91
2021/01/01 12:37:39;;;;;;;16.63;13.70;;;5.00;84.10;;;;;;5104104;28;20202;-90
2021/01/01 12:40:06;;;;;;;17.00;14.23;;;4.90;84.40;;;;;;5105112;28;20194;-92
2021/01/01 12:42:32;;;;;;;16.77;13.40;;;4.70;84.40;;;;;;5070707;28;20529;-90
2021/01/01 12:44:58;;;;;;;14.87;12.53;;;4.70;84.10;;;;;;5104435;28;20199;-91
2021/01/01 12:47:24;;;;;;;15.77;13.07;;;4.80;84.50;;;;;;5088376;28;20240;-90
2021/01/01 12:49:52;;;;;;;14.30;12.10;;;4.80;83.60;;;;;;5087766;28;20203;-93
2021/01/01 12:52:19;;;;;;;14.73;12.53;;;5.10;81.90;;;;;;5088009;28;20182;-93
2021/01/01 12:54:45;;;;;;;15.50;12.87;;;5.10;81.30;;;;;;5066863;28;20607;-92
2021/01/01 12:57:10;;;;;;;14.70;12.27;;;5.40;80.50;;;;;;5105458;28;20269;-92
2021/01/01 12:59:36;;;;;;;13.93;12.30;;;5.30;79.60;;;;;;5090410;28;20210;-93
2021/01/01 13:02:02;;;;;;;13.93;11.97;;;5.30;81.50;;;;;;5110099;28;20190;-92
2021/01/01 13:04:28;;;;;;;13.73;12.27;;;5.50;79.70;;;;;;5107977;28;20238;-92
2021/01/01 13:07:18;;;;;;;13.93;11.17;;;5.70;78.30;;;;;;5104165;28;20701;-91
2021/01/01 13:09:44;;;;;;;11.83;10.40;;;5.70;78.80;;;;;;5126921;28;20198;-92
2021/01/01 13:12:09;;;;;;;12.43;10.63;;;5.90;77.40;;;;;;5073985;28;20714;-92
2021/01/01 13:14:35;;;;;;;12.00;10.80;;;5.90;76.90;;;;;;5104047;28;20187;-92
2021/01/01 13:17:01;;;;;;;11.07;9.90;;;5.70;76.30;;;;;;5077787;28;20289;-92
2021/01/01 13:19:27;;;;;;;10.60;9.53;;;5.90;75.00;;;;;;5095672;28;20301;-91
2021/01/01 13:21:54;;;;;;;11.77;9.80;;;5.90;76.80;;;;;;5107299;28;20193;-90
2021/01/01 13:24:20;;;;;;;11.33;9.97;;;5.50;76.10;;;;;;5124718;28;20217;-91
2021/01/01 13:26:45;;;;;;;12.13;9.50;;;5.60;76.90;;;;;;5105597;28;20620;-90
2021/01/01 13:29:11;;;;;;;11.50;10.10;;;5.50;74.80;;;;;;5107243;28;20616;-90
2021/01/01 13:31:41;;;;;;;10.50;8.53;;;5.60;75.80;;;;;;5122710;27;20641;-90
2021/01/01 13:34:09;;;;;;;11.37;9.00;;;5.40;76.20;;;;;;5092887;28;20573;-90
2021/01/01 13:36:37;;;;;;;13.57;8.97;;;5.30;76.80;;;;;;5099660;28;20190;-90
2021/01/01 13:39:04;;;;;;;10.60;9.43;;;5.30;76.60;;;;;;5086728;28;20245;-90
2021/01/01 13:41:31;;;;;;;11.57;9.77;;;5.20;76.20;;;;;;5087823;28;20194;-90
2021/01/01 13:43:57;;;;;;;11.23;9.23;;;5.20;76.70;;;;;;5110746;28;20285;-89
2021/01/01 13:46:25;;;;;;;9.90;8.87;;;5.00;77.30;;;;;;5118386;27;20181;-90
2021/01/01 13:48:52;;;;;;;10.13;8.77;;;4.90;77.60;;;;;;5105065;28;20202;-91
2021/01/01 13:51:26;;;;;;;11.43;9.40;;;4.90;78.80;;;;;;5108125;28;20196;-90
2021/01/01 13:53:51;;;;;;;10.67;8.83;;;4.80;78.00;;;;;;5122975;28;20182;-90
2021/01/01 13:56:17;;;;;;;10.30;8.60;;;4.70;78.90;;;;;;5100266;28;20183;-90
2021/01/01 13:58:42;;;;;;;10.93;8.80;;;4.80;79.20;;;;;;5098503;28;20575;-93
2021/01/01 14:01:08;;;;;;;11.00;9.20;;;4.70;79.70;;;;;;5070063;28;20206;-93
2021/01/01 14:03:34;;;;;;;12.33;10.37;;;4.70;79.80;;;;;;5084598;28;20213;-92
2021/01/01 14:06:00;;;;;;;13.03;9.87;;;4.60;80.20;;;;;;5085574;28;20225;-93
2021/01/01 14:08:25;;;;;;;13.23;10.37;;;4.50;80.50;;;;;;5084651;28;20213;-92
2021/01/01 14:10:51;;;;;;;14.27;11.20;;;4.40;81.00;;;;;;5086800;28;20455;-94
2021/01/01 14:13:17;;;;;;;12.33;10.50;;;4.30;81.00;;;;;;5123159;28;20212;-93